Quant — CNA4980 — position and weather

sailwx.info

Track history (hours):
 
Tides and Currents Weather Stations Pressure Air Temp Water Temp Dewpoint Dewpoint Depression Visibility Wind Speed Wind Dir Waves Ship Positions

Quant

Last reported at 2017-Nov-11 05:20 UTC. Time now 2017-Nov-21 04:43 UTC.
Position N 24°12' W 015°54'.
Warning: this ship's position is 9 days out of date.

Length 50 m; draft 5.5 m.

Type: Fishing. MMSI: 242189100.

Date/timePositionNaut miles runAvg speedWind from/ knotsBaromVisibWave heightAir tempDewpointWater temp
2017-Nov-11 05:20N 24°12' W 015°54'2 5.1
2017-Nov-11 05:00N 24°11' W 015°55'1 2.7
2017-Nov-11 04:30N 24°11' W 015°54'1 2.8
2017-Nov-11 03:59N 24°12' W 015°53'3 4.1
2017-Nov-11 03:21N 24°14' W 015°50'4 4.5
2017-Nov-11 02:22N 24°17' W 015°47'2 4.6
2017-Nov-11 02:00N 24°18' W 015°45'6 0.7
2017-Nov-10 17:31N 24°23' W 015°48'0 3.7
2017-Nov-10 17:27N 24°24' W 015°48'2 3.8
2017-Nov-10 17:00N 24°25' W 015°47'3 6.8
2017-Nov-10 16:30N 24°28' W 015°45'3 6.8
2017-Nov-10 16:00N 24°31' W 015°44'1 2.2
2017-Nov-10 15:30N 24°30' W 015°44'2 3.7
2017-Nov-10 15:00N 24°29' W 015°45'2 4.0
2017-Nov-10 14:29N 24°27' W 015°44'2 2.7
2017-Nov-10 13:54N 24°25' W 015°44'2 4.1
2017-Nov-10 13:30N 24°26' W 015°45'2 4.2
2017-Nov-10 12:59N 24°28' W 015°46'2 4.4
2017-Nov-10 12:25N 24°30' W 015°44'2 4.4
2017-Nov-10 12:00N 24°32' W 015°43'1 1.4
2017-Nov-10 11:14N 24°33' W 015°43'1 4.1
2017-Nov-10 10:59N 24°32' W 015°43'  
Track history (hours):
 
Tides and Currents Weather Stations Pressure Air Temp Water Temp Dewpoint Dewpoint Depression Visibility Wind Speed Wind Dir Waves Ship Positions

Quant

Last reported at 2017-Nov-11 05:20 UTC. Time now 2017-Nov-21 04:43 UTC.
Position N 24°12' W 015°54'.
Warning: this ship's position is 9 days out of date.

Length 50 m; draft 5.5 m.

Type: Fishing. MMSI: 242189100.

Date/timePositionNaut miles runAvg speedWind from/ knotsBaromVisibWave heightAir tempDewpointWater temp
2017-Nov-11 05:20N 24°12' W 015°54'2 5.1
2017-Nov-11 05:00N 24°11' W 015°55'1 2.7
2017-Nov-11 04:30N 24°11' W 015°54'1 2.8
2017-Nov-11 03:59N 24°12' W 015°53'3 4.1
2017-Nov-11 03:21N 24°14' W 015°50'4 4.5
2017-Nov-11 02:22N 24°17' W 015°47'2 4.6
2017-Nov-11 02:00N 24°18' W 015°45'6 0.7
2017-Nov-10 17:31N 24°23' W 015°48'0 3.7
2017-Nov-10 17:27N 24°24' W 015°48'2 3.8
2017-Nov-10 17:00N 24°25' W 015°47'3 6.8
2017-Nov-10 16:30N 24°28' W 015°45'3 6.8
2017-Nov-10 16:00N 24°31' W 015°44'1 2.2
2017-Nov-10 15:30N 24°30' W 015°44'2 3.7
2017-Nov-10 15:00N 24°29' W 015°45'2 4.0
2017-Nov-10 14:29N 24°27' W 015°44'2 2.7
2017-Nov-10 13:54N 24°25' W 015°44'2 4.1
2017-Nov-10 13:30N 24°26' W 015°45'2 4.2
2017-Nov-10 12:59N 24°28' W 015°46'2 4.4
2017-Nov-10 12:25N 24°30' W 015°44'2 4.4
2017-Nov-10 12:00N 24°32' W 015°43'1 1.4
2017-Nov-10 11:14N 24°33' W 015°43'1 4.1
2017-Nov-10 10:59N 24°32' W 015°43'  

Dump ship's entire track history